createdAt,value
2023-02-18T00:01:10.989Z,100.00
2023-02-18T00:05:09.980Z,100.00
2023-02-18T00:09:09.206Z,100.00
2023-02-18T00:13:08.118Z,100.00
2023-02-18T00:17:06.090Z,100.00
2023-02-18T00:21:04.173Z,100.00
2023-02-18T00:25:01.951Z,100.00
2023-02-18T00:29:00.979Z,100.00
2023-02-18T00:32:59.960Z,100.00
2023-02-18T00:36:57.935Z,100.00
2023-02-18T00:40:57.942Z,100.00
2023-02-18T00:44:55.919Z,100.00
2023-02-18T00:48:53.964Z,100.00
2023-02-18T00:52:51.921Z,100.00
2023-02-18T00:56:51.027Z,100.00
2023-02-18T01:00:50.029Z,100.00
2023-02-18T01:04:48.084Z,100.00
2023-02-18T01:08:46.213Z,100.00
2023-02-18T01:12:43.955Z,100.00
2023-02-18T01:16:41.932Z,100.00
2023-02-18T01:20:41.132Z,100.00
2023-02-18T01:24:39.933Z,100.00
2023-02-18T01:28:38.020Z,100.00
2023-02-18T01:32:35.852Z,100.00
2023-02-18T01:36:33.972Z,100.00
2023-02-18T01:40:38.905Z,100.00
2023-02-18T01:44:40.891Z,99.86
2023-02-18T01:49:10.501Z,99.90
2023-02-18T01:53:07.981Z,100.00
2023-02-18T01:57:20.892Z,100.00
2023-02-18T02:01:19.851Z,100.00
2023-02-18T02:05:18.908Z,100.00
2023-02-18T02:09:20.854Z,100.00
2023-02-18T02:13:33.808Z,100.00
2023-02-18T02:17:47.865Z,100.00
2023-02-18T02:21:55.799Z,100.00
2023-02-18T02:26:38.828Z,100.00
2023-02-18T02:31:12.913Z,100.00
2023-02-18T02:35:33.847Z,100.00
2023-02-18T02:39:35.812Z,100.00
2023-02-18T02:43:55.912Z,100.00
2023-02-18T02:48:34.763Z,100.00
2023-02-18T02:52:39.782Z,100.00
2023-02-18T02:56:39.792Z,100.00
2023-02-18T03:01:04.784Z,100.00
2023-02-18T03:05:20.766Z,100.00
2023-02-18T03:09:49.755Z,100.00
2023-02-18T03:14:17.828Z,100.00
2023-02-18T03:18:22.908Z,100.00
2023-02-18T03:22:27.723Z,100.00
2023-02-18T03:26:27.887Z,100.00
2023-02-18T03:30:30.740Z,100.00
2023-02-18T03:34:34.751Z,98.83
2023-02-18T03:38:35.698Z,97.02
2023-02-18T03:42:33.728Z,95.59
2023-02-18T03:46:31.684Z,93.64
2023-02-18T03:50:29.731Z,92.81
2023-02-18T03:54:27.772Z,92.82
2023-02-18T03:58:25.696Z,94.72
2023-02-18T04:02:23.672Z,95.03
2023-02-18T04:06:21.706Z,96.35
2023-02-18T04:10:20.675Z,97.25
2023-02-18T04:14:18.672Z,98.20
2023-02-18T04:18:16.653Z,99.95
2023-02-18T04:22:14.880Z,99.32
2023-02-18T04:26:12.668Z,98.07
2023-02-18T04:30:10.727Z,97.79
2023-02-18T04:34:08.649Z,98.41
2023-02-18T04:38:06.682Z,98.86
2023-02-18T04:42:04.627Z,99.67
2023-02-18T04:46:02.720Z,99.72
2023-02-18T04:50:00.758Z,99.33
2023-02-18T04:53:58.728Z,99.98
2023-02-18T04:57:56.606Z,100.00
2023-02-18T05:01:55.863Z,99.79
2023-02-18T05:05:53.599Z,99.55
2023-02-18T05:09:51.623Z,99.51
2023-02-18T05:13:49.590Z,99.36
2023-02-18T05:17:47.738Z,99.70
2023-02-18T05:21:45.727Z,100.00
2023-02-18T05:25:43.648Z,100.00
2023-02-18T05:29:41.680Z,99.95
2023-02-18T05:33:39.613Z,100.00
2023-02-18T05:37:37.641Z,99.76
2023-02-18T05:41:36.584Z,99.75
2023-02-18T05:45:34.618Z,100.00
2023-02-18T05:49:32.588Z,99.95
2023-02-18T05:53:30.570Z,99.91
2023-02-18T05:57:29.553Z,99.71
2023-02-18T06:01:27.546Z,99.80
2023-02-18T06:05:25.649Z,99.71
2023-02-18T06:09:25.535Z,99.68
2023-02-18T06:13:23.546Z,99.98
2023-02-18T06:17:21.502Z,99.62
2023-02-18T06:21:19.624Z,99.82
2023-02-18T06:25:17.490Z,99.69
2023-02-18T06:29:17.514Z,99.89
2023-02-18T06:33:16.597Z,99.51
2023-02-18T06:37:15.497Z,99.09
2023-02-18T06:41:13.487Z,98.69
2023-02-18T06:45:13.506Z,98.28
2023-02-18T06:49:11.591Z,98.56
2023-02-18T06:53:09.559Z,98.84
2023-02-18T06:57:07.536Z,98.17
2023-02-18T07:01:05.459Z,98.04
2023-02-18T07:05:03.509Z,98.21
2023-02-18T07:09:01.575Z,98.16
2023-02-18T07:13:01.605Z,97.39
2023-02-18T07:17:06.173Z,97.15
2023-02-18T07:21:04.455Z,95.93
2023-02-18T07:25:08.494Z,96.10
2023-02-18T07:29:06.519Z,95.01
2023-02-18T07:33:04.409Z,94.47
2023-02-18T07:37:09.401Z,95.04
2023-02-18T07:41:08.445Z,95.06
2023-02-18T07:45:06.398Z,94.67
2023-02-18T07:49:04.452Z,94.18
2023-02-18T07:53:02.377Z,91.83
2023-02-18T07:57:01.387Z,92.84
2023-02-18T08:01:00.386Z,91.97
2023-02-18T08:04:58.455Z,91.07
2023-02-18T08:08:56.343Z,90.59
2023-02-18T08:12:54.528Z,89.56
2023-02-18T08:16:54.383Z,87.99
2023-02-18T08:20:52.334Z,88.31
2023-02-18T08:24:50.354Z,86.94
2023-02-18T08:28:48.434Z,85.88
2023-02-18T08:32:29.414Z,85.67
2023-02-18T08:35:55.424Z,84.51
2023-02-18T08:39:19.419Z,83.81
2023-02-18T08:42:43.431Z,82.42
2023-02-18T08:46:07.618Z,82.19
2023-02-18T08:49:31.658Z,82.30
2023-02-18T08:52:55.628Z,81.47
2023-02-18T08:56:19.635Z,81.43
2023-02-18T08:59:44.797Z,81.05
2023-02-18T09:03:09.369Z,78.99
2023-02-18T09:06:33.430Z,79.00
2023-02-18T09:09:57.418Z,78.59
2023-02-18T09:13:21.365Z,78.95
2023-02-18T09:16:45.341Z,77.19
2023-02-18T09:20:11.207Z,76.78
2023-02-18T09:23:37.518Z,76.92
2023-02-18T09:27:03.591Z,75.62
2023-02-18T09:30:27.635Z,75.14
2023-02-18T09:33:55.278Z,75.05
2023-02-18T09:37:19.154Z,74.95
2023-02-18T09:40:50.961Z,74.62
2023-02-18T09:44:24.410Z,74.20
2023-02-18T09:47:49.251Z,74.75
2023-02-18T09:51:16.481Z,74.02
2023-02-18T09:54:40.600Z,73.99
2023-02-18T09:58:05.875Z,73.95
2023-02-18T10:01:37.764Z,72.99
2023-02-18T10:05:02.099Z,71.77
2023-02-18T10:08:34.473Z,70.80
2023-02-18T10:12:09.365Z,71.43
2023-02-18T10:15:34.613Z,71.27
2023-02-18T10:19:07.053Z,69.99
2023-02-18T10:22:31.237Z,70.97
2023-02-18T10:25:56.849Z,71.41
2023-02-18T10:29:22.102Z,70.36
2023-02-18T10:32:47.255Z,68.00
2023-02-18T10:36:21.395Z,67.51
2023-02-18T10:39:49.475Z,67.61
2023-02-18T10:44:01.618Z,67.96
2023-02-18T10:47:39.810Z,66.79
2023-02-18T10:51:15.841Z,66.72
2023-02-18T10:54:51.033Z,67.01
2023-02-18T10:58:34.651Z,68.11
2023-02-18T11:02:15.277Z,68.30
2023-02-18T11:05:39.719Z,67.22
2023-02-18T11:09:04.131Z,66.02
2023-02-18T11:12:55.549Z,65.30
2023-02-18T11:16:37.652Z,64.98
2023-02-18T11:20:04.556Z,64.14
2023-02-18T11:23:29.015Z,63.37
2023-02-18T11:26:52.833Z,61.94
2023-02-18T11:30:33.355Z,61.10
2023-02-18T11:34:00.535Z,61.32
2023-02-18T11:37:24.707Z,62.15
2023-02-18T11:40:56.550Z,63.32
2023-02-18T11:44:32.511Z,63.22
2023-02-18T11:48:07.852Z,63.46
2023-02-18T11:51:36.863Z,63.37
2023-02-18T11:55:25.027Z,63.60
2023-02-18T11:58:49.901Z,62.42
2023-02-18T12:02:27.847Z,62.65
2023-02-18T12:05:53.103Z,63.95
2023-02-18T12:09:26.168Z,64.08
2023-02-18T12:13:00.222Z,62.63
2023-02-18T12:17:02.799Z,61.72
2023-02-18T12:20:48.800Z,62.74
2023-02-18T12:24:40.595Z,62.26
2023-02-18T12:28:09.554Z,63.12
2023-02-18T12:32:03.961Z,63.98
2023-02-18T12:35:38.688Z,63.06
2023-02-18T12:39:14.746Z,62.22
2023-02-18T12:42:47.840Z,61.85
2023-02-18T12:46:14.855Z,62.49
2023-02-18T12:49:57.623Z,63.45
2023-02-18T12:53:42.686Z,64.33
2023-02-18T12:57:49.026Z,65.18
2023-02-18T13:01:57.090Z,63.26
2023-02-18T13:06:29.066Z,62.88
2023-02-18T13:10:45.065Z,62.43
2023-02-18T13:14:53.023Z,63.29
2023-02-18T13:18:58.274Z,63.23
2023-02-18T13:22:57.003Z,62.00
2023-02-18T13:26:57.972Z,61.88
2023-02-18T13:31:11.581Z,60.91
2023-02-18T13:35:19.016Z,61.04
2023-02-18T13:39:26.116Z,61.42
2023-02-18T13:43:43.024Z,61.31
2023-02-18T13:48:02.109Z,60.91
2023-02-18T13:52:01.946Z,61.86
2023-02-18T13:56:11.057Z,62.81
2023-02-18T14:00:10.147Z,63.86
2023-02-18T14:04:10.919Z,64.91
2023-02-18T14:08:51.084Z,65.82
2023-02-18T14:12:54.988Z,66.53
2023-02-18T14:17:31.977Z,67.23
2023-02-18T14:21:29.964Z,67.62
2023-02-18T14:25:28.965Z,67.89
2023-02-18T14:29:28.911Z,68.93
2023-02-18T14:33:29.886Z,69.43
2023-02-18T14:38:07.937Z,69.80
2023-02-18T14:42:30.872Z,70.38
2023-02-18T14:47:08.881Z,70.81
2023-02-18T14:51:08.125Z,70.98
2023-02-18T14:55:06.032Z,71.63
2023-02-18T14:59:14.864Z,72.04
2023-02-18T15:03:15.969Z,72.19
2023-02-18T15:07:16.840Z,72.48
2023-02-18T15:11:17.853Z,73.25
2023-02-18T15:15:18.832Z,73.61
2023-02-18T15:19:20.941Z,73.74
2023-02-18T15:23:18.874Z,74.18
2023-02-18T15:27:19.869Z,74.47
2023-02-18T15:31:18.916Z,74.95
2023-02-18T15:35:29.843Z,75.41
2023-02-18T15:39:27.826Z,75.17
2023-02-18T15:43:31.805Z,75.30
2023-02-18T15:47:30.818Z,75.45
2023-02-18T15:51:33.812Z,75.44
2023-02-18T15:55:44.812Z,76.02
2023-02-18T15:59:43.852Z,76.69
2023-02-18T16:03:53.890Z,77.05
2023-02-18T16:08:07.041Z,77.88
2023-02-18T16:12:16.747Z,78.08
2023-02-18T16:16:14.839Z,76.93
2023-02-18T16:20:37.768Z,77.34
2023-02-18T16:24:44.814Z,77.06
2023-02-18T16:28:47.840Z,77.87
2023-02-18T16:32:45.791Z,81.90
2023-02-18T16:36:32.283Z,86.85
2023-02-18T16:39:57.531Z,94.21
2023-02-18T16:43:25.006Z,99.93
2023-02-18T16:46:49.014Z,100.00
2023-02-18T16:50:22.065Z,100.00
2023-02-18T16:53:46.488Z,100.00
2023-02-18T16:57:13.546Z,100.00
2023-02-18T17:00:38.671Z,100.00
2023-02-18T17:04:03.835Z,100.00
2023-02-18T17:07:28.121Z,100.00
2023-02-18T17:10:59.440Z,100.00
2023-02-18T17:14:24.520Z,100.00
2023-02-18T17:17:48.757Z,100.00
2023-02-18T17:21:18.688Z,100.00
2023-02-18T17:24:42.680Z,100.00
2023-02-18T17:28:07.694Z,100.00
2023-02-18T17:31:36.486Z,100.00
2023-02-18T17:35:00.393Z,100.00
2023-02-18T17:38:24.834Z,100.00
2023-02-18T17:41:48.834Z,100.00
2023-02-18T17:45:32.241Z,100.00
2023-02-18T17:48:59.209Z,100.00
2023-02-18T17:52:31.878Z,100.00
2023-02-18T17:55:55.756Z,100.00
2023-02-18T17:59:19.855Z,100.00
2023-02-18T18:02:43.908Z,100.00
2023-02-18T18:06:17.235Z,100.00
2023-02-18T18:09:42.371Z,100.00
2023-02-18T18:13:17.336Z,100.00
2023-02-18T18:16:41.373Z,100.00
2023-02-18T18:20:06.150Z,100.00
2023-02-18T18:23:30.093Z,100.00
2023-02-18T18:26:54.133Z,100.00
2023-02-18T18:30:18.794Z,100.00
2023-02-18T18:33:43.340Z,100.00
2023-02-18T18:37:11.098Z,100.00
2023-02-18T18:40:35.394Z,100.00
2023-02-18T18:43:59.693Z,100.00
2023-02-18T18:47:23.567Z,100.00
2023-02-18T18:50:48.784Z,100.00
2023-02-18T18:54:13.068Z,100.00
2023-02-18T18:57:37.319Z,100.00
2023-02-18T19:01:07.042Z,100.00
2023-02-18T19:04:31.114Z,100.00
2023-02-18T19:07:55.781Z,100.00
2023-02-18T19:11:19.933Z,100.00
2023-02-18T19:14:43.775Z,100.00
2023-02-18T19:18:08.476Z,100.00
2023-02-18T19:21:33.548Z,100.00
2023-02-18T19:24:57.650Z,100.00
2023-02-18T19:28:21.543Z,100.00
2023-02-18T19:31:45.490Z,100.00
2023-02-18T19:35:09.952Z,100.00
2023-02-18T19:38:33.812Z,100.00
2023-02-18T19:41:57.717Z,100.00
2023-02-18T19:45:23.503Z,100.00
2023-02-18T19:48:52.525Z,100.00
2023-02-18T19:52:16.562Z,100.00
2023-02-18T19:55:40.717Z,100.00
2023-02-18T19:59:04.580Z,100.00
2023-02-18T20:02:30.471Z,100.00
2023-02-18T20:05:54.500Z,100.00
2023-02-18T20:09:18.276Z,100.00
2023-02-18T20:12:42.712Z,100.00
2023-02-18T20:16:08.175Z,100.00
2023-02-18T20:19:32.888Z,100.00
2023-02-18T20:22:56.922Z,100.00
2023-02-18T20:26:20.846Z,100.00
2023-02-18T20:29:45.090Z,100.00
2023-02-18T20:33:09.013Z,100.00
2023-02-18T20:36:32.990Z,100.00
2023-02-18T20:39:57.487Z,100.00
2023-02-18T20:43:21.349Z,100.00
2023-02-18T20:46:46.337Z,100.00
2023-02-18T20:50:11.051Z,100.00
2023-02-18T20:53:37.040Z,100.00
2023-02-18T20:57:02.037Z,100.00
2023-02-18T21:00:25.987Z,100.00
2023-02-18T21:03:51.811Z,100.00
2023-02-18T21:07:16.169Z,100.00
2023-02-18T21:10:43.768Z,100.00
2023-02-18T21:14:10.718Z,100.00
2023-02-18T21:17:34.910Z,100.00
2023-02-18T21:20:59.779Z,100.00
2023-02-18T21:24:24.006Z,100.00
2023-02-18T21:27:47.978Z,100.00
2023-02-18T21:31:37.065Z,100.00
2023-02-18T21:35:01.242Z,100.00
2023-02-18T21:38:25.135Z,100.00
2023-02-18T21:41:49.047Z,100.00
2023-02-18T21:45:16.981Z,100.00
2023-02-18T21:48:58.466Z,100.00
2023-02-18T21:52:22.755Z,100.00
2023-02-18T21:56:02.184Z,100.00
2023-02-18T21:59:29.705Z,100.00
2023-02-18T22:02:53.756Z,100.00
2023-02-18T22:06:17.727Z,100.00
2023-02-18T22:09:41.820Z,100.00
2023-02-18T22:13:05.698Z,100.00
2023-02-18T22:16:29.688Z,100.00
2023-02-18T22:19:53.965Z,100.00
2023-02-18T22:23:18.708Z,100.00
2023-02-18T22:26:44.051Z,100.00
2023-02-18T22:30:08.483Z,100.00
2023-02-18T22:33:32.566Z,100.00
2023-02-18T22:36:56.554Z,100.00
2023-02-18T22:40:20.810Z,100.00
2023-02-18T22:43:44.997Z,100.00
2023-02-18T22:47:08.946Z,100.00
2023-02-18T22:50:32.937Z,100.00
2023-02-18T22:53:59.154Z,100.00
2023-02-18T22:57:23.189Z,100.00
2023-02-18T23:00:47.191Z,100.00
2023-02-18T23:04:15.700Z,100.00
2023-02-18T23:07:40.048Z,100.00
2023-02-18T23:11:10.531Z,100.00
2023-02-18T23:14:34.565Z,100.00
2023-02-18T23:17:58.653Z,100.00
2023-02-18T23:21:22.578Z,100.00
2023-02-18T23:24:47.455Z,100.00
2023-02-18T23:28:11.409Z,100.00
2023-02-18T23:31:37.963Z,100.00
2023-02-18T23:35:02.078Z,100.00
2023-02-18T23:38:25.969Z,100.00
2023-02-18T23:41:52.298Z,100.00
2023-02-18T23:45:16.376Z,100.00
2023-02-18T23:48:40.203Z,100.00
2023-02-18T23:52:04.158Z,100.00
2023-02-18T23:55:28.385Z,100.00
2023-02-18T23:58:57.438Z,100.00
